createdAt,value
2022-08-12T00:00:59.494Z,42.80
2022-08-12T00:03:47.124Z,42.80
2022-08-12T00:06:35.672Z,43.43
2022-08-12T00:09:26.205Z,43.43
2022-08-12T00:12:12.158Z,43.44
2022-08-12T00:14:59.403Z,42.76
2022-08-12T00:17:46.793Z,42.76
2022-08-12T00:20:34.225Z,42.74
2022-08-12T00:23:22.288Z,41.57
2022-08-12T00:26:22.320Z,41.57
2022-08-12T00:28:58.956Z,41.77
2022-08-12T00:31:45.985Z,42.36
2022-08-12T00:34:34.418Z,42.40
2022-08-12T00:37:21.538Z,41.52
2022-08-12T00:40:11.220Z,41.62
2022-08-12T00:42:42.252Z,41.62
2022-08-12T00:45:12.371Z,41.59
2022-08-12T00:47:41.685Z,39.79
2022-08-12T00:50:14.295Z,39.91
2022-08-12T00:52:45.019Z,39.91
2022-08-12T00:55:14.391Z,40.98
2022-08-12T00:57:49.202Z,40.98
2022-08-12T01:00:21.790Z,40.91
2022-08-12T01:02:57.841Z,40.91
2022-08-12T01:05:46.413Z,41.45
2022-08-12T01:08:34.145Z,41.45
2022-08-12T01:11:21.585Z,41.11
2022-08-12T01:13:51.781Z,38.83
2022-08-12T01:16:22.902Z,38.83
2022-08-12T01:18:55.165Z,38.35
2022-08-12T01:21:48.875Z,38.99
2022-08-12T01:24:34.355Z,40.35
2022-08-12T01:27:07.425Z,40.35
2022-08-12T01:29:38.895Z,40.69
2022-08-12T01:32:10.576Z,41.36
2022-08-12T01:34:42.586Z,40.92
2022-08-12T01:37:13.657Z,41.39
2022-08-12T01:40:31.596Z,41.46
2022-08-12T01:42:22.516Z,43.31
2022-08-12T01:44:54.205Z,40.56
2022-08-12T01:47:34.917Z,41.08
2022-08-12T01:50:16.920Z,41.21
2022-08-12T01:52:48.989Z,41.82
2022-08-12T01:55:21.048Z,41.82
2022-08-12T01:58:01.922Z,41.55
2022-08-12T02:00:55.367Z,41.55
2022-08-12T02:03:52.036Z,41.72
2022-08-12T02:07:06.101Z,42.93
2022-08-12T02:10:07.867Z,42.93
2022-08-12T02:13:13.701Z,43.29
2022-08-12T02:16:00.614Z,42.65
2022-08-12T02:18:49.507Z,41.69
2022-08-12T02:21:49.077Z,41.69
2022-08-12T02:24:24.201Z,42.37
2022-08-12T02:26:57.825Z,42.37
2022-08-12T02:29:28.079Z,42.47
2022-08-12T02:31:59.589Z,42.54
2022-08-12T02:34:30.334Z,41.86
2022-08-12T02:37:02.418Z,41.86
2022-08-12T02:39:35.246Z,42.70
2022-08-12T02:42:07.214Z,42.48
2022-08-12T02:44:40.437Z,41.70
2022-08-12T02:48:00.322Z,41.70
2022-08-12T02:49:45.588Z,42.51
2022-08-12T02:52:17.762Z,42.51
2022-08-12T02:54:49.716Z,41.84
2022-08-12T02:57:21.084Z,40.92
2022-08-12T02:59:52.414Z,41.03
2022-08-12T03:02:24.077Z,42.59
2022-08-12T03:04:56.979Z,42.95
2022-08-12T03:07:56.386Z,42.95
2022-08-12T03:10:14.640Z,40.81
2022-08-12T03:12:48.834Z,40.12
2022-08-12T03:15:18.432Z,40.12
2022-08-12T03:18:25.401Z,40.68
2022-08-12T03:20:28.515Z,40.28
2022-08-12T03:22:57.483Z,40.28
2022-08-12T03:25:27.577Z,41.34
2022-08-12T03:27:58.579Z,40.67
2022-08-12T03:30:32.228Z,41.90
2022-08-12T03:33:03.356Z,41.41
2022-08-12T03:35:41.331Z,41.41
2022-08-12T03:38:11.748Z,40.89
2022-08-12T03:41:16.690Z,40.41
2022-08-12T03:44:12.485Z,40.41
2022-08-12T03:47:02.168Z,40.71
2022-08-12T03:49:49.654Z,41.67
2022-08-12T03:52:36.618Z,40.82
2022-08-12T03:55:24.937Z,41.52
2022-08-12T03:58:11.653Z,40.67
2022-08-12T04:00:40.907Z,41.11
2022-08-12T04:03:12.999Z,41.11
2022-08-12T04:05:54.706Z,41.48
2022-08-12T04:08:14.875Z,40.67
2022-08-12T04:11:01.707Z,41.23
2022-08-12T04:13:30.928Z,41.68
2022-08-12T04:16:01.974Z,42.14
2022-08-12T04:18:33.089Z,40.79
2022-08-12T04:21:02.904Z,42.38
2022-08-12T04:23:33.970Z,42.26
2022-08-12T04:26:03.034Z,42.26
2022-08-12T04:28:32.151Z,42.38
2022-08-12T04:31:01.549Z,42.38
2022-08-12T04:33:32.264Z,41.59
2022-08-12T04:36:01.365Z,42.21
2022-08-12T04:38:31.893Z,41.41
2022-08-12T04:41:02.540Z,41.31
2022-08-12T04:44:00.055Z,40.74
2022-08-12T04:46:03.174Z,40.36
2022-08-12T04:48:32.983Z,40.79
2022-08-12T04:51:03.315Z,40.79
2022-08-12T04:53:33.328Z,42.70
2022-08-12T04:56:02.645Z,42.38
2022-08-12T04:58:32.028Z,42.38
2022-08-12T05:01:04.841Z,41.12
2022-08-12T05:03:46.102Z,40.94
2022-08-12T05:06:08.327Z,41.54
2022-08-12T05:08:37.750Z,41.61
2022-08-12T05:11:07.418Z,41.61
2022-08-12T05:13:39.610Z,40.94
2022-08-12T05:16:09.963Z,41.86
2022-08-12T05:18:40.873Z,41.09
2022-08-12T05:21:11.738Z,41.43
2022-08-12T05:23:43.154Z,41.68
2022-08-12T05:26:12.584Z,38.38
2022-08-12T05:28:41.865Z,38.38
2022-08-12T05:31:12.796Z,40.53
2022-08-12T05:33:42.435Z,40.32
2022-08-12T05:36:16.722Z,40.32
2022-08-12T05:38:59.573Z,39.90
2022-08-12T05:41:35.419Z,40.59
2022-08-12T05:44:07.480Z,39.88
2022-08-12T05:46:37.971Z,40.38
2022-08-12T05:49:07.905Z,39.70
2022-08-12T05:51:39.817Z,41.08
2022-08-12T05:54:11.389Z,41.08
2022-08-12T05:56:42.682Z,40.78
2022-08-12T05:59:13.018Z,42.31
2022-08-12T06:02:09.720Z,42.31
2022-08-12T06:04:14.575Z,43.69
2022-08-12T06:06:43.766Z,43.69
2022-08-12T06:09:13.471Z,42.30
2022-08-12T06:11:54.031Z,42.71
2022-08-12T06:14:13.524Z,42.71
2022-08-12T06:16:44.443Z,41.85
2022-08-12T06:19:13.546Z,41.85
2022-08-12T06:21:43.167Z,42.20
2022-08-12T06:24:13.892Z,42.20
2022-08-12T06:26:44.622Z,41.45
2022-08-12T06:29:15.372Z,41.45
2022-08-12T06:31:46.431Z,41.74
2022-08-12T06:35:24.010Z,42.15
2022-08-12T06:36:49.390Z,42.68
2022-08-12T06:39:18.664Z,42.68
2022-08-12T06:42:42.091Z,43.08
2022-08-12T06:44:36.788Z,43.46
2022-08-12T06:47:06.056Z,43.11
2022-08-12T06:49:36.947Z,43.11
2022-08-12T06:52:07.595Z,42.94
2022-08-12T06:54:36.850Z,42.98
2022-08-12T06:57:59.777Z,42.98
2022-08-12T06:59:38.609Z,44.03
2022-08-12T07:02:08.884Z,44.03
2022-08-12T07:04:39.400Z,43.57
2022-08-12T07:07:10.923Z,43.41
2022-08-12T07:10:03.643Z,44.93
2022-08-12T07:12:15.142Z,45.86
2022-08-12T07:14:48.468Z,45.86
2022-08-12T07:17:16.402Z,48.56
2022-08-12T07:19:48.672Z,46.76
2022-08-12T07:22:18.417Z,47.54
2022-08-12T07:24:49.269Z,45.41
2022-08-12T07:27:18.425Z,44.96
2022-08-12T07:30:03.405Z,46.81
2022-08-12T07:32:18.768Z,46.81
2022-08-12T07:34:47.956Z,46.62
2022-08-12T07:37:17.971Z,46.85
2022-08-12T07:39:50.846Z,47.36
2022-08-12T07:42:17.942Z,46.63
2022-08-12T07:44:47.646Z,47.80
2022-08-12T07:47:18.442Z,46.10
2022-08-12T07:50:05.232Z,48.27
2022-08-12T07:52:18.696Z,48.27
2022-08-12T07:54:48.403Z,48.86
2022-08-12T07:57:17.601Z,48.80
2022-08-12T07:59:46.796Z,47.27
2022-08-12T08:02:17.601Z,46.09
2022-08-12T08:04:58.931Z,46.47
2022-08-12T08:07:30.788Z,45.67
2022-08-12T08:10:02.590Z,45.67
2022-08-12T08:12:50.271Z,45.99
2022-08-12T08:15:20.972Z,45.06
2022-08-12T08:17:59.870Z,45.06
2022-08-12T08:20:33.138Z,45.78
2022-08-12T08:23:08.175Z,46.14
2022-08-12T08:25:39.016Z,46.10
2022-08-12T08:28:17.803Z,45.12
2022-08-12T08:30:49.605Z,45.94
2022-08-12T08:34:01.234Z,45.59
2022-08-12T08:35:51.374Z,45.61
2022-08-12T08:38:31.976Z,44.74
2022-08-12T08:41:11.202Z,44.74
2022-08-12T08:43:44.108Z,45.99
2022-08-12T08:46:11.183Z,45.99
2022-08-12T08:48:41.271Z,45.01
2022-08-12T08:51:10.526Z,44.37
2022-08-12T08:53:41.373Z,44.37
2022-08-12T08:56:11.208Z,45.25
2022-08-12T08:58:43.522Z,47.94
2022-08-12T09:01:14.627Z,47.94
2022-08-12T09:05:08.639Z,48.39
2022-08-12T09:06:17.201Z,47.45
2022-08-12T09:08:46.969Z,47.61
2022-08-12T09:12:07.572Z,47.73
2022-08-12T09:14:10.875Z,47.73
2022-08-12T09:16:41.599Z,48.48
2022-08-12T09:19:27.653Z,47.11
2022-08-12T09:24:19.938Z,46.86
2022-08-12T09:26:49.866Z,46.86
2022-08-12T09:30:09.852Z,44.46
2022-08-12T09:32:04.013Z,45.41
2022-08-12T09:34:33.623Z,43.96
2022-08-12T09:37:01.591Z,45.77
2022-08-12T09:40:05.800Z,44.34
2022-08-12T09:42:38.734Z,46.35
2022-08-12T09:45:18.886Z,44.61
2022-08-12T09:47:37.811Z,44.61
2022-08-12T09:50:20.159Z,45.32
2022-08-12T09:52:40.507Z,45.32
2022-08-12T09:56:05.561Z,43.82
2022-08-12T09:58:44.533Z,44.65
2022-08-12T10:00:19.733Z,46.69
2022-08-12T10:03:09.033Z,46.69
2022-08-12T10:06:27.897Z,45.97
2022-08-12T10:08:18.643Z,45.13
2022-08-12T10:11:07.774Z,45.13
2022-08-12T10:13:45.380Z,45.43
2022-08-12T10:16:22.409Z,45.43
2022-08-12T10:19:02.734Z,45.69
2022-08-12T10:21:41.628Z,45.60
2022-08-12T10:24:20.270Z,47.38
2022-08-12T10:27:05.666Z,45.57
2022-08-12T10:30:03.580Z,44.14
2022-08-12T10:32:21.366Z,44.58
2022-08-12T10:34:53.560Z,44.58
2022-08-12T10:38:32.493Z,44.83
2022-08-12T10:40:08.175Z,45.35
2022-08-12T10:42:46.097Z,45.35
2022-08-12T10:45:14.321Z,44.36
2022-08-12T10:48:19.300Z,44.36
2022-08-12T10:50:28.134Z,46.08
2022-08-12T10:52:47.791Z,44.33
2022-08-12T10:55:19.781Z,44.33
2022-08-12T10:58:13.370Z,43.76
2022-08-12T11:00:35.146Z,45.90
2022-08-12T11:04:20.501Z,45.18
2022-08-12T11:07:09.011Z,45.18
2022-08-12T11:08:37.663Z,46.21
2022-08-12T11:10:27.236Z,45.19
2022-08-12T11:12:59.560Z,43.72
2022-08-12T11:15:32.868Z,43.72
2022-08-12T11:17:59.304Z,43.68
2022-08-12T11:20:30.727Z,43.68
2022-08-12T11:23:25.263Z,45.69
2022-08-12T11:25:55.780Z,45.13
2022-08-12T11:28:05.735Z,44.51
2022-08-12T11:30:35.074Z,44.23
2022-08-12T11:33:04.132Z,43.90
2022-08-12T11:35:36.504Z,43.48
2022-08-12T11:38:06.804Z,43.48
2022-08-12T11:40:37.842Z,43.60
2022-08-12T11:43:19.202Z,43.43
2022-08-12T11:45:39.425Z,43.43
2022-08-12T11:48:08.614Z,42.66
2022-08-12T11:50:42.151Z,44.16
2022-08-12T11:53:56.916Z,45.70
2022-08-12T11:55:46.659Z,44.49
2022-08-12T11:59:30.891Z,42.81
2022-08-12T12:03:13.539Z,42.94
2022-08-12T12:05:45.683Z,42.62
2022-08-12T12:08:40.412Z,43.12
2022-08-12T12:10:56.507Z,42.75
2022-08-12T12:14:08.866Z,42.39
2022-08-12T12:15:56.944Z,42.39
2022-08-12T12:18:30.709Z,43.87
2022-08-12T12:21:03.941Z,43.87
2022-08-12T12:23:36.366Z,44.03
2022-08-12T12:26:18.536Z,44.36
2022-08-12T12:28:39.709Z,42.80
2022-08-12T12:31:14.760Z,42.64
2022-08-12T12:33:56.967Z,42.84
2022-08-12T12:36:20.780Z,45.02
2022-08-12T12:38:42.569Z,45.02
2022-08-12T12:41:16.236Z,45.07
2022-08-12T12:43:44.699Z,43.86
2022-08-12T12:46:13.454Z,42.77
2022-08-12T12:48:44.706Z,42.31
2022-08-12T12:51:22.252Z,43.60
2022-08-12T12:54:07.839Z,44.55
2022-08-12T12:56:33.828Z,44.55
2022-08-12T12:58:56.631Z,43.07
2022-08-12T13:01:30.915Z,42.09
2022-08-12T13:04:02.624Z,42.45
2022-08-12T13:06:31.446Z,42.46
2022-08-12T13:09:03.631Z,42.70
2022-08-12T13:11:41.400Z,42.70
2022-08-12T13:14:12.548Z,42.98
2022-08-12T13:16:43.788Z,42.59
2022-08-12T13:19:11.637Z,44.12
2022-08-12T13:21:43.944Z,43.52
2022-08-12T13:24:13.226Z,42.85
2022-08-12T13:26:43.937Z,42.85
2022-08-12T13:29:13.226Z,43.43
2022-08-12T13:32:18.709Z,44.09
2022-08-12T13:34:33.550Z,43.49
2022-08-12T13:36:47.375Z,42.15
2022-08-12T13:39:16.809Z,42.15
2022-08-12T13:41:45.998Z,42.79
2022-08-12T13:44:16.835Z,42.77
2022-08-12T13:46:46.017Z,42.06
2022-08-12T13:49:17.718Z,41.10
2022-08-12T13:51:49.324Z,41.10
2022-08-12T13:54:19.883Z,42.13
2022-08-12T13:56:49.942Z,41.78
2022-08-12T13:59:24.465Z,41.78
2022-08-12T14:01:53.838Z,40.33
2022-08-12T14:04:24.844Z,42.59
2022-08-12T14:06:54.368Z,41.96
2022-08-12T14:09:23.541Z,41.08
2022-08-12T14:11:58.733Z,40.62
2022-08-12T14:14:25.234Z,41.63
2022-08-12T14:16:54.432Z,40.93
2022-08-12T14:19:26.504Z,41.38
2022-08-12T14:22:00.960Z,41.38
2022-08-12T14:24:26.963Z,41.50
2022-08-12T14:26:57.167Z,41.01
2022-08-12T14:29:56.000Z,40.87
2022-08-12T14:32:00.526Z,40.00
2022-08-12T14:34:31.227Z,40.00
2022-08-12T14:37:02.473Z,40.94
2022-08-12T14:39:34.092Z,40.81
2022-08-12T14:42:05.427Z,41.12
2022-08-12T14:44:59.267Z,43.71
2022-08-12T14:47:07.946Z,41.02
2022-08-12T14:50:33.791Z,41.02
2022-08-12T14:53:50.656Z,40.71
2022-08-12T14:57:23.032Z,40.92
2022-08-12T15:00:00.349Z,40.92
2022-08-12T15:02:29.948Z,41.52
2022-08-12T15:05:03.548Z,40.41
2022-08-12T15:07:48.915Z,39.59
2022-08-12T15:10:04.014Z,39.59
2022-08-12T15:12:33.927Z,39.99
2022-08-12T15:15:03.006Z,41.73
2022-08-12T15:17:37.887Z,40.25
2022-08-12T15:20:31.456Z,40.27
2022-08-12T15:22:53.632Z,40.41
2022-08-12T15:25:17.701Z,40.15
2022-08-12T15:28:10.985Z,40.15
2022-08-12T15:30:14.475Z,40.15
2022-08-12T15:32:48.706Z,41.41
2022-08-12T15:35:17.491Z,41.41
2022-08-12T15:38:10.518Z,41.27
2022-08-12T15:40:30.205Z,41.27
2022-08-12T15:42:51.019Z,40.77
2022-08-12T15:45:23.747Z,41.04
2022-08-12T15:48:16.186Z,41.04
2022-08-12T15:50:27.687Z,40.05
2022-08-12T15:52:58.260Z,40.05
2022-08-12T15:55:33.593Z,41.08
2022-08-12T15:58:01.953Z,41.08
2022-08-12T16:00:35.889Z,40.58
2022-08-12T16:03:13.615Z,41.11
2022-08-12T16:06:10.987Z,41.00
2022-08-12T16:08:21.231Z,41.10
2022-08-12T16:10:45.209Z,41.10
2022-08-12T16:13:32.813Z,41.50
2022-08-12T16:16:01.692Z,40.46
2022-08-12T16:18:22.005Z,40.90
2022-08-12T16:20:52.569Z,42.14
2022-08-12T16:23:36.043Z,41.03
2022-08-12T16:26:05.727Z,41.03
2022-08-12T16:28:28.216Z,41.57
2022-08-12T16:30:59.130Z,40.90
2022-08-12T16:33:59.487Z,41.57
2022-08-12T16:36:18.904Z,41.81
2022-08-12T16:38:46.004Z,40.72
2022-08-12T16:41:15.290Z,40.94
2022-08-12T16:43:46.925Z,42.11
2022-08-12T16:46:31.130Z,42.11
2022-08-12T16:48:49.202Z,40.61
2022-08-12T16:51:20.249Z,42.39
2022-08-12T16:53:50.591Z,41.48
2022-08-12T16:56:20.000Z,41.48
2022-08-12T16:58:49.218Z,40.92
2022-08-12T17:01:20.064Z,40.92
2022-08-12T17:04:08.894Z,40.43
2022-08-12T17:06:44.869Z,40.72
2022-08-12T17:09:17.146Z,42.82
2022-08-12T17:11:46.794Z,41.53
2022-08-12T17:14:16.948Z,41.72
2022-08-12T17:16:46.167Z,42.51
2022-08-12T17:19:17.163Z,42.78
2022-08-12T17:22:01.060Z,41.72
2022-08-12T17:24:30.641Z,41.98
2022-08-12T17:26:56.640Z,41.21
2022-08-12T17:30:00.597Z,41.71
2022-08-12T17:32:01.551Z,41.85
2022-08-12T17:34:49.425Z,41.97
2022-08-12T17:37:19.132Z,41.51
2022-08-12T17:40:13.562Z,41.04
2022-08-12T17:42:32.544Z,41.04
2022-08-12T17:44:52.869Z,41.63
2022-08-12T17:47:24.945Z,41.83
2022-08-12T17:50:01.751Z,41.58
2022-08-12T17:52:33.273Z,41.28
2022-08-12T17:54:57.446Z,41.76
2022-08-12T17:57:28.927Z,41.41
2022-08-12T18:00:00.504Z,40.55
2022-08-12T18:02:32.368Z,39.57
2022-08-12T18:05:05.401Z,40.51
2022-08-12T18:07:35.697Z,40.51
2022-08-12T18:10:05.225Z,40.20
2022-08-12T18:12:47.949Z,41.33
2022-08-12T18:15:26.911Z,41.33
2022-08-12T18:17:49.729Z,40.86
2022-08-12T18:20:20.544Z,40.86
2022-08-12T18:22:52.522Z,41.56
2022-08-12T18:26:13.260Z,40.04
2022-08-12T18:28:11.757Z,40.10
2022-08-12T18:30:34.569Z,41.68
2022-08-12T18:33:05.659Z,40.74
2022-08-12T18:35:46.237Z,40.80
2022-08-12T18:38:08.718Z,40.51
2022-08-12T18:41:01.337Z,40.92
2022-08-12T18:43:37.020Z,40.15
2022-08-12T18:46:06.104Z,41.29
2022-08-12T18:48:39.902Z,40.36
2022-08-12T18:51:21.767Z,41.51
2022-08-12T18:54:05.399Z,40.05
2022-08-12T18:56:32.537Z,41.62
2022-08-12T18:58:59.560Z,40.24
2022-08-12T19:02:19.623Z,40.24
2022-08-12T19:04:07.965Z,40.39
2022-08-12T19:06:41.658Z,39.94
2022-08-12T19:09:15.076Z,40.01
2022-08-12T19:12:03.729Z,39.57
2022-08-12T19:14:35.681Z,40.54
2022-08-12T19:17:11.403Z,39.90
2022-08-12T19:19:41.913Z,40.06
2022-08-12T19:22:09.928Z,40.14
2022-08-12T19:24:57.157Z,40.14
2022-08-12T19:27:27.145Z,41.30
2022-08-12T19:30:06.562Z,40.39
2022-08-12T19:32:31.493Z,41.63
2022-08-12T19:38:03.145Z,40.28
2022-08-12T19:40:30.928Z,40.14
2022-08-12T19:42:44.645Z,39.96
2022-08-12T19:45:12.722Z,40.27
2022-08-12T19:47:43.503Z,40.83
2022-08-12T19:50:19.886Z,40.04
2022-08-12T19:52:46.864Z,40.04
2022-08-12T19:55:21.253Z,41.03
2022-08-12T19:58:01.601Z,41.77
2022-08-12T20:00:22.642Z,39.81
2022-08-12T20:02:53.332Z,39.44
2022-08-12T20:06:03.317Z,39.44
2022-08-12T20:08:00.506Z,40.58
2022-08-12T20:10:35.642Z,40.58
2022-08-12T20:13:19.230Z,39.87
2022-08-12T20:15:44.509Z,40.24
2022-08-12T20:18:07.446Z,40.84
2022-08-12T20:20:39.519Z,39.95
2022-08-12T20:23:11.862Z,40.25
2022-08-12T20:25:53.495Z,41.29
2022-08-12T20:28:15.001Z,40.81
2022-08-12T20:30:53.699Z,41.58
2022-08-12T20:33:17.413Z,42.64
2022-08-12T20:36:06.422Z,40.73
2022-08-12T20:38:26.653Z,42.32
2022-08-12T20:40:48.254Z,42.52
2022-08-12T20:43:19.007Z,42.52
2022-08-12T20:45:51.269Z,40.73
2022-08-12T20:48:21.784Z,40.94
2022-08-12T20:50:53.422Z,40.94
2022-08-12T20:53:28.853Z,40.55
2022-08-12T20:55:57.418Z,40.96
2022-08-12T20:58:24.908Z,40.96
2022-08-12T21:00:54.106Z,41.30
2022-08-12T21:03:52.330Z,39.63
2022-08-12T21:06:30.175Z,41.17
2022-08-12T21:09:00.299Z,42.02
2022-08-12T21:11:30.466Z,42.02
2022-08-12T21:13:59.515Z,42.84
2022-08-12T21:16:35.560Z,42.17
2022-08-12T21:19:01.081Z,42.44
2022-08-12T21:21:46.815Z,41.99
2022-08-12T21:24:02.774Z,41.61
2022-08-12T21:26:33.489Z,41.87
2022-08-12T21:29:04.199Z,40.82
2022-08-12T21:32:40.816Z,40.82
2022-08-12T21:34:09.351Z,41.55
2022-08-12T21:36:43.154Z,40.88
2022-08-12T21:39:18.691Z,40.88
2022-08-12T21:41:44.422Z,42.26
2022-08-12T21:44:32.619Z,42.26
2022-08-12T21:46:53.635Z,41.72
2022-08-12T21:49:55.030Z,41.72
2022-08-12T21:51:56.356Z,41.51
2022-08-12T21:54:27.255Z,40.88
2022-08-12T21:56:56.530Z,40.65
2022-08-12T21:59:26.169Z,40.90
2022-08-12T22:02:02.732Z,40.65
2022-08-12T22:04:51.575Z,40.92
2022-08-12T22:07:21.180Z,40.92
2022-08-12T22:09:57.091Z,41.08
2022-08-12T22:12:37.571Z,41.08
2022-08-12T22:15:07.926Z,40.41
2022-08-12T22:17:50.390Z,39.77
2022-08-12T22:20:12.716Z,40.87
2022-08-12T22:22:43.014Z,39.52
2022-08-12T22:25:14.636Z,39.52
2022-08-12T22:28:02.636Z,39.07
2022-08-12T22:30:39.053Z,40.06
2022-08-12T22:33:15.616Z,38.89
2022-08-12T22:35:56.414Z,39.15
2022-08-12T22:38:17.270Z,39.15
2022-08-12T22:40:51.409Z,39.38
2022-08-12T22:43:58.570Z,39.85
2022-08-12T22:46:10.715Z,39.85
2022-08-12T22:48:50.383Z,39.16
2022-08-12T22:51:10.622Z,39.87
2022-08-12T22:53:41.484Z,40.17
2022-08-12T22:56:14.289Z,40.70
2022-08-12T22:58:44.166Z,41.23
2022-08-12T23:01:21.141Z,40.63
2022-08-12T23:03:48.788Z,40.63
2022-08-12T23:06:17.176Z,40.66
2022-08-12T23:08:46.217Z,40.62
2022-08-12T23:11:16.231Z,41.08
2022-08-12T23:13:55.141Z,41.08
2022-08-12T23:16:29.289Z,40.46
2022-08-12T23:18:52.193Z,40.18
2022-08-12T23:21:23.675Z,41.60
2022-08-12T23:24:09.928Z,41.55
2022-08-12T23:26:26.125Z,40.67
2022-08-12T23:29:29.837Z,41.10
2022-08-12T23:32:03.499Z,41.26
2022-08-12T23:34:21.064Z,40.72
2022-08-12T23:36:52.236Z,41.53
2022-08-12T23:40:15.583Z,41.98
2022-08-12T23:41:56.013Z,41.42
2022-08-12T23:44:31.600Z,41.66
2022-08-12T23:47:03.591Z,40.49
2022-08-12T23:49:57.239Z,41.03
2022-08-12T23:52:07.359Z,41.20
2022-08-12T23:54:44.694Z,41.20
2022-08-12T23:57:17.049Z,41.47
2022-08-12T23:59:55.413Z,41.47
